Time;durP1;ratioP1;P1;durP2;ratioP2;P2;SDS_P1;SDS_P2;PMS_P1;PMS_P2;Temp;Humidity;BMP_temperature;BMP_pressure;BME280_temperature;BME280_humidity;BME280_pressure;Samples;Min_cycle;Max_cycle;Signal;HPM_P1;HPM_P2
2023/04/08 00:00:15;;;;;;;0.35;0.35;;;7.40;90.50;;;;;;5112739;28;20124;-70
2023/04/08 00:02:42;;;;;;;0.50;0.50;;;7.40;90.50;;;;;;5094719;28;20112;-70
2023/04/08 00:05:07;;;;;;;0.55;0.50;;;7.40;90.60;;;;;;5092680;28;20475;-70
2023/04/08 00:07:33;;;;;;;0.35;0.35;;;7.40;90.60;;;;;;5112682;28;20075;-70
2023/04/08 00:09:59;;;;;;;0.52;0.43;;;7.40;90.60;;;;;;5112145;28;20067;-70
2023/04/08 00:12:25;;;;;;;0.77;0.57;;;7.40;90.60;;;;;;5112632;28;20032;-70
2023/04/08 00:14:51;;;;;;;0.70;0.50;;;7.30;90.60;;;;;;5112117;28;20064;-70
2023/04/08 00:17:16;;;;;;;0.43;0.43;;;7.30;90.60;;;;;;5112210;28;20134;-70
2023/04/08 00:19:43;;;;;;;0.50;0.50;;;7.30;90.60;;;;;;5112088;28;20043;-70
2023/04/08 00:22:09;;;;;;;0.40;0.40;;;7.30;90.60;;;;;;5111974;28;20055;-70
2023/04/08 00:24:35;;;;;;;0.43;0.43;;;7.20;90.60;;;;;;5112224;28;20036;-70
2023/04/08 00:27:01;;;;;;;0.35;0.35;;;7.30;90.70;;;;;;5112007;28;20035;-70
2023/04/08 00:29:28;;;;;;;0.50;0.50;;;7.10;90.60;;;;;;5112155;28;20032;-70
2023/04/08 00:31:53;;;;;;;0.50;0.50;;;7.10;90.70;;;;;;5094421;28;20505;-71
2023/04/08 00:34:19;;;;;;;0.65;0.50;;;7.10;90.70;;;;;;5112377;28;20043;-70
2023/04/08 00:36:46;;;;;;;0.45;0.45;;;7.20;90.70;;;;;;5112475;28;20044;-70
2023/04/08 00:39:13;;;;;;;0.70;0.52;;;7.10;90.70;;;;;;5112421;28;20071;-70
2023/04/08 00:41:39;;;;;;;0.40;0.40;;;7.10;90.70;;;;;;5112664;28;20070;-70
2023/04/08 00:44:05;;;;;;;0.40;0.40;;;7.00;90.60;;;;;;5115437;28;20448;-70
2023/04/08 00:46:35;;;;;;;0.40;0.40;;;7.10;90.60;;;;;;5115843;28;20040;-70
2023/04/08 00:49:01;;;;;;;0.57;0.45;;;7.00;90.60;;;;;;5115894;28;20099;-70
2023/04/08 00:51:30;;;;;;;0.47;0.35;;;7.00;90.60;;;;;;5095128;28;20051;-70
2023/04/08 00:53:55;;;;;;;0.43;0.43;;;7.00;90.60;;;;;;5115240;28;20057;-70
2023/04/08 00:56:22;;;;;;;0.35;0.35;;;7.10;90.60;;;;;;5115674;28;20048;-70
2023/04/08 00:58:50;;;;;;;0.38;0.38;;;7.00;90.60;;;;;;5115147;28;20406;-70
2023/04/08 01:01:31;;;;;;;0.43;0.40;;;7.10;90.60;;;;;;5115746;28;20069;-71
2023/04/08 01:04:21;;;;;;;0.60;0.60;;;7.00;90.60;;;;;;5096599;28;20164;-70
2023/04/08 01:06:55;;;;;;;0.40;0.40;;;7.00;90.60;;;;;;5115085;28;20045;-70
2023/04/08 01:09:26;;;;;;;0.60;0.60;;;7.00;90.60;;;;;;5115012;28;20047;-70
2023/04/08 01:11:55;;;;;;;0.77;0.50;;;7.00;90.60;;;;;;5114982;28;20100;-70
2023/04/08 01:14:24;;;;;;;0.60;0.50;;;6.90;90.60;;;;;;5115569;28;20352;-70
2023/04/08 01:16:50;;;;;;;0.30;0.30;;;6.90;90.60;;;;;;5095146;28;20048;-70
2023/04/08 01:19:28;;;;;;;0.40;0.40;;;6.90;90.70;;;;;;5115141;28;20092;-70
2023/04/08 01:22:11;;;;;;;0.50;0.50;;;6.90;90.70;;;;;;5114957;28;20052;-70
2023/04/08 01:24:41;;;;;;;0.43;0.43;;;6.80;90.60;;;;;;5111709;28;20050;-70
2023/04/08 01:27:09;;;;;;;0.43;0.43;;;6.80;90.70;;;;;;5115406;28;20127;-70
2023/04/08 01:29:36;;;;;;;0.52;0.50;;;6.70;90.70;;;;;;5115442;28;20127;-70
2023/04/08 01:32:03;;;;;;;0.65;0.50;;;6.70;90.80;;;;;;5114785;28;20055;-70
2023/04/08 01:34:30;;;;;;;0.30;0.30;;;6.60;90.70;;;;;;5114696;28;20075;-70
2023/04/08 01:36:57;;;;;;;0.88;0.60;;;6.70;90.80;;;;;;5094959;28;20059;-70
2023/04/08 01:39:24;;;;;;;0.52;0.50;;;6.70;90.80;;;;;;5114703;28;20035;-70
2023/04/08 01:41:53;;;;;;;1.08;0.73;;;6.70;90.80;;;;;;5114419;28;20054;-70
2023/04/08 01:44:20;;;;;;;0.60;0.50;;;6.60;90.80;;;;;;5114821;28;20072;-70
2023/04/08 01:46:48;;;;;;;0.43;0.40;;;6.60;90.70;;;;;;5114371;28;20136;-70
2023/04/08 01:49:15;;;;;;;0.50;0.50;;;6.60;90.70;;;;;;5114494;28;20042;-70
2023/04/08 01:51:42;;;;;;;0.85;0.60;;;6.60;90.80;;;;;;5114570;28;20036;-70
2023/04/08 01:54:07;;;;;;;0.40;0.40;;;6.60;90.80;;;;;;5113607;28;20100;-70
2023/04/08 01:56:38;;;;;;;0.47;0.45;;;6.50;90.80;;;;;;5114133;28;20043;-70
2023/04/08 01:59:08;;;;;;;0.95;0.73;;;6.50;90.80;;;;;;5114409;28;20081;-70
2023/04/08 02:01:34;;;;;;;0.60;0.43;;;6.50;90.80;;;;;;5114335;28;20122;-70
2023/04/08 02:04:02;;;;;;;0.40;0.40;;;6.40;90.80;;;;;;5114339;28;20035;-70
2023/04/08 02:06:28;;;;;;;0.68;0.45;;;6.50;90.90;;;;;;5095834;28;20437;-70
2023/04/08 02:08:54;;;;;;;0.80;0.50;;;6.30;90.80;;;;;;5114202;28;20046;-70
2023/04/08 02:11:20;;;;;;;0.68;0.47;;;6.40;90.90;;;;;;5094640;28;20032;-70
2023/04/08 02:13:46;;;;;;;1.00;0.65;;;6.30;90.80;;;;;;5114038;28;20039;-70
2023/04/08 02:16:22;;;;;;;0.80;0.57;;;6.30;90.80;;;;;;5114448;28;20035;-71
2023/04/08 02:18:57;;;;;;;0.50;0.50;;;6.30;90.90;;;;;;5113878;28;20050;-70
2023/04/08 02:21:32;;;;;;;0.40;0.40;;;6.30;90.90;;;;;;5113758;28;20050;-70
2023/04/08 02:24:01;;;;;;;0.68;0.50;;;6.20;90.90;;;;;;5113777;28;20105;-70
2023/04/08 02:26:26;;;;;;;0.63;0.40;;;6.20;90.90;;;;;;5113877;28;20044;-70
2023/04/08 02:28:54;;;;;;;0.43;0.40;;;6.20;90.90;;;;;;5113738;28;20046;-70
2023/04/08 02:31:20;;;;;;;0.50;0.50;;;6.20;90.90;;;;;;5113815;28;20035;-70
2023/04/08 02:33:49;;;;;;;0.30;0.30;;;6.10;91.10;;;;;;5095296;28;20490;-70
2023/04/08 02:36:15;;;;;;;0.65;0.50;;;6.10;90.80;;;;;;5114134;28;20481;-70
2023/04/08 02:38:41;;;;;;;1.00;0.73;;;6.10;90.90;;;;;;5114319;28;20054;-70
2023/04/08 02:41:07;;;;;;;0.40;0.40;;;6.00;90.90;;;;;;5114055;28;20498;-70
2023/04/08 02:43:32;;;;;;;0.50;0.50;;;6.00;90.90;;;;;;5113823;28;20117;-70
2023/04/08 02:46:02;;;;;;;0.28;0.28;;;6.00;90.90;;;;;;5094474;28;20050;-70
2023/04/08 02:48:27;;;;;;;0.55;0.43;;;5.90;90.90;;;;;;5113528;28;20129;-70
2023/04/08 02:50:53;;;;;;;0.32;0.32;;;5.90;91.00;;;;;;5095197;28;20043;-69
2023/04/08 02:53:21;;;;;;;0.73;0.50;;;5.90;91.00;;;;;;5113538;28;20046;-70
2023/04/08 02:55:46;;;;;;;0.73;0.57;;;5.90;91.00;;;;;;5113490;28;20039;-70
2023/04/08 02:58:12;;;;;;;1.02;0.60;;;5.90;90.90;;;;;;5113449;28;20089;-70
2023/04/08 03:00:38;;;;;;;0.25;0.25;;;5.90;90.90;;;;;;5113728;28;20130;-70
2023/04/08 03:03:05;;;;;;;0.77;0.50;;;5.80;90.80;;;;;;5113494;28;20039;-70
2023/04/08 03:05:31;;;;;;;0.35;0.32;;;5.90;90.90;;;;;;5112891;28;20042;-70
2023/04/08 03:07:57;;;;;;;0.25;0.25;;;5.80;90.90;;;;;;5113239;28;20031;-70
2023/04/08 03:10:22;;;;;;;0.32;0.32;;;5.70;90.90;;;;;;5113652;28;20032;-70
2023/04/08 03:12:48;;;;;;;0.40;0.40;;;5.70;90.90;;;;;;5113222;28;20039;-70
2023/04/08 03:15:14;;;;;;;0.40;0.40;;;5.60;90.90;;;;;;5113205;28;20027;-70
2023/04/08 03:17:40;;;;;;;0.70;0.50;;;5.50;90.90;;;;;;5113259;28;20479;-69
2023/04/08 03:20:06;;;;;;;0.40;0.40;;;5.50;90.90;;;;;;5113121;28;20031;-69
2023/04/08 03:22:33;;;;;;;0.40;0.40;;;5.40;90.90;;;;;;5113123;28;20049;-69
2023/04/08 03:24:58;;;;;;;0.63;0.50;;;5.50;91.00;;;;;;5113503;28;20046;-70
2023/04/08 03:27:24;;;;;;;0.65;0.55;;;5.30;91.00;;;;;;5112840;28;20040;-70
2023/04/08 03:29:50;;;;;;;0.70;0.50;;;5.40;91.00;;;;;;5113069;28;20047;-70
2023/04/08 03:32:15;;;;;;;0.40;0.40;;;5.30;91.00;;;;;;5113351;28;20101;-70
2023/04/08 03:34:41;;;;;;;0.55;0.50;;;5.40;91.00;;;;;;5112809;28;20034;-70
2023/04/08 03:37:07;;;;;;;0.40;0.40;;;5.30;90.90;;;;;;5113122;28;20040;-70
2023/04/08 03:39:32;;;;;;;0.47;0.47;;;5.20;91.00;;;;;;5113258;28;20078;-70
2023/04/08 03:41:59;;;;;;;0.52;0.50;;;5.20;91.00;;;;;;5113365;28;20132;-70
2023/04/08 03:44:25;;;;;;;0.52;0.50;;;5.10;91.00;;;;;;5094877;28;20050;-70
2023/04/08 03:46:51;;;;;;;0.73;0.60;;;5.10;91.00;;;;;;5094945;28;20122;-70
2023/04/08 03:49:17;;;;;;;0.40;0.40;;;5.10;91.00;;;;;;5112593;28;20036;-70
2023/04/08 03:51:42;;;;;;;0.32;0.30;;;5.00;91.00;;;;;;5113001;28;20120;-69
2023/04/08 03:54:08;;;;;;;0.75;0.50;;;5.00;91.10;;;;;;5112648;28;20040;-69
2023/04/08 03:56:34;;;;;;;0.63;0.50;;;4.90;91.00;;;;;;5094271;28;20039;-68
2023/04/08 03:59:00;;;;;;;0.50;0.50;;;4.80;91.00;;;;;;5112477;28;20051;-68
2023/04/08 04:01:25;;;;;;;1.10;0.80;;;4.80;91.00;;;;;;5112540;28;20035;-68
2023/04/08 04:03:51;;;;;;;0.65;0.50;;;4.80;91.00;;;;;;5112870;28;20452;-69
2023/04/08 04:06:16;;;;;;;0.70;0.60;;;4.70;91.00;;;;;;5112704;28;20040;-68
2023/04/08 04:08:42;;;;;;;0.95;0.68;;;4.70;91.00;;;;;;5112520;28;20047;-68
2023/04/08 04:11:07;;;;;;;0.50;0.50;;;4.70;91.00;;;;;;5112597;28;20074;-69
2023/04/08 04:13:33;;;;;;;0.50;0.50;;;4.70;91.00;;;;;;5112745;28;20082;-69
2023/04/08 04:15:59;;;;;;;0.47;0.47;;;4.60;91.00;;;;;;5112446;28;20071;-70
2023/04/08 04:18:24;;;;;;;0.68;0.60;;;4.60;91.00;;;;;;5096125;28;20075;-70
2023/04/08 04:20:50;;;;;;;0.50;0.50;;;4.60;91.00;;;;;;5115176;28;20093;-70
2023/04/08 04:23:15;;;;;;;0.65;0.50;;;4.50;91.00;;;;;;5116255;28;20070;-70
2023/04/08 04:25:41;;;;;;;0.57;0.50;;;4.50;91.00;;;;;;5116561;28;20462;-70
2023/04/08 04:28:08;;;;;;;1.05;0.50;;;4.50;91.00;;;;;;5116127;28;20122;-71
2023/04/08 04:30:37;;;;;;;0.55;0.50;;;4.40;91.00;;;;;;5115980;28;20039;-71
2023/04/08 04:33:03;;;;;;;0.50;0.47;;;4.40;91.00;;;;;;5116057;28;20097;-70
2023/04/08 04:35:29;;;;;;;0.52;0.50;;;4.40;91.00;;;;;;5097984;28;20040;-70
2023/04/08 04:37:55;;;;;;;0.45;0.40;;;4.40;90.90;;;;;;5080552;28;20078;-69
2023/04/08 04:40:21;;;;;;;0.95;0.60;;;4.40;90.90;;;;;;5115857;28;20058;-68
2023/04/08 04:42:47;;;;;;;0.70;0.60;;;4.40;90.90;;;;;;5098191;28;20039;-69
2023/04/08 04:45:13;;;;;;;0.60;0.50;;;4.40;90.90;;;;;;5115818;28;20398;-69
2023/04/08 04:47:38;;;;;;;0.47;0.47;;;4.30;90.90;;;;;;5115577;28;20383;-69
2023/04/08 04:50:05;;;;;;;0.40;0.40;;;4.30;90.90;;;;;;5115752;28;20044;-69
2023/04/08 04:52:30;;;;;;;0.60;0.60;;;4.20;91.00;;;;;;5115502;28;20071;-69
2023/04/08 04:54:57;;;;;;;0.52;0.40;;;4.20;90.90;;;;;;5115552;28;20070;-69
2023/04/08 04:57:23;;;;;;;0.30;0.30;;;4.10;90.90;;;;;;5115940;28;20039;-69
2023/04/08 04:59:48;;;;;;;0.50;0.40;;;4.10;90.90;;;;;;5115547;28;20089;-69
2023/04/08 05:02:14;;;;;;;0.43;0.40;;;4.00;90.90;;;;;;5115874;28;20540;-69
2023/04/08 05:04:39;;;;;;;0.40;0.40;;;4.10;90.90;;;;;;5115569;28;20044;-69
2023/04/08 05:07:05;;;;;;;0.50;0.50;;;4.00;90.90;;;;;;5115484;28;20043;-69
2023/04/08 05:09:31;;;;;;;0.82;0.60;;;4.00;91.00;;;;;;5115373;28;20040;-68
2023/04/08 05:11:56;;;;;;;0.93;0.70;;;4.00;90.90;;;;;;5115545;28;20047;-69
2023/04/08 05:14:22;;;;;;;0.50;0.50;;;3.90;90.90;;;;;;5095193;28;20044;-69
2023/04/08 05:16:48;;;;;;;0.60;0.40;;;3.90;90.90;;;;;;5115435;28;20035;-68
2023/04/08 05:19:13;;;;;;;1.33;0.80;;;4.00;91.00;;;;;;5115727;28;20528;-68
2023/04/08 05:21:39;;;;;;;0.65;0.57;;;3.90;90.90;;;;;;5097348;28;20074;-69
2023/04/08 05:24:05;;;;;;;0.82;0.57;;;3.90;90.90;;;;;;5096482;28;20039;-69
2023/04/08 05:26:30;;;;;;;0.88;0.57;;;3.90;90.90;;;;;;5115118;28;20040;-69
2023/04/08 05:28:56;;;;;;;0.52;0.50;;;3.90;90.90;;;;;;5115065;28;20039;-69
2023/04/08 05:31:21;;;;;;;0.77;0.70;;;3.90;90.90;;;;;;5115564;28;20040;-69
2023/04/08 05:33:47;;;;;;;0.70;0.50;;;3.80;90.80;;;;;;5115050;28;20050;-69
2023/04/08 05:36:13;;;;;;;0.57;0.50;;;3.90;90.90;;;;;;5114891;28;20035;-69
2023/04/08 05:38:42;;;;;;;0.52;0.50;;;3.90;90.80;;;;;;5115306;28;20092;-69
2023/04/08 05:41:07;;;;;;;0.57;0.57;;;3.90;90.80;;;;;;5114828;28;20079;-69
2023/04/08 05:43:33;;;;;;;0.60;0.47;;;3.90;90.80;;;;;;5095423;28;20491;-69
2023/04/08 05:45:59;;;;;;;0.50;0.50;;;4.00;90.80;;;;;;5114760;28;20043;-68
2023/04/08 05:48:25;;;;;;;0.68;0.55;;;3.90;90.80;;;;;;5079155;28;20392;-69
2023/04/08 05:50:50;;;;;;;0.40;0.40;;;3.80;90.80;;;;;;5114932;28;20506;-69
2023/04/08 05:53:18;;;;;;;0.30;0.30;;;3.90;90.80;;;;;;5114799;28;20064;-69
2023/04/08 05:55:44;;;;;;;0.40;0.40;;;3.80;91.10;;;;;;5115149;28;20077;-69
2023/04/08 05:58:10;;;;;;;0.60;0.40;;;3.80;90.80;;;;;;5096497;28;20047;-69
2023/04/08 06:00:35;;;;;;;0.73;0.57;;;3.80;90.80;;;;;;5114634;28;20119;-69
2023/04/08 06:03:01;;;;;;;0.38;0.38;;;3.80;90.80;;;;;;5115053;28;20051;-69
2023/04/08 06:05:26;;;;;;;0.40;0.40;;;3.80;90.80;;;;;;5096974;28;20150;-69
2023/04/08 06:07:52;;;;;;;0.52;0.43;;;3.90;90.80;;;;;;5094835;28;20543;-69
2023/04/08 06:10:18;;;;;;;0.32;0.32;;;3.90;90.80;;;;;;5114425;28;20093;-69
2023/04/08 06:12:43;;;;;;;0.40;0.40;;;3.90;91.00;;;;;;5114734;28;20372;-69
2023/04/08 06:15:09;;;;;;;0.40;0.40;;;4.00;90.70;;;;;;5094880;28;20461;-69
2023/04/08 06:17:36;;;;;;;0.50;0.47;;;4.00;90.60;;;;;;5114341;28;20065;-69
2023/04/08 06:20:02;;;;;;;0.82;0.60;;;4.10;90.50;;;;;;5114110;28;20401;-69
2023/04/08 06:22:28;;;;;;;0.82;0.60;;;4.20;90.60;;;;;;5114161;28;20065;-69
2023/04/08 06:24:54;;;;;;;0.68;0.60;;;4.30;90.60;;;;;;5094531;28;20040;-69
2023/04/08 06:27:19;;;;;;;0.47;0.47;;;4.30;90.50;;;;;;5114190;28;20054;-69
2023/04/08 06:29:46;;;;;;;0.47;0.47;;;4.40;90.40;;;;;;5114065;28;20506;-69
2023/04/08 06:32:12;;;;;;;0.50;0.40;;;4.60;90.40;;;;;;5094600;28;20040;-69
2023/04/08 06:34:38;;;;;;;0.60;0.50;;;4.50;90.30;;;;;;5114152;28;20390;-69
2023/04/08 06:37:05;;;;;;;0.70;0.50;;;4.60;90.30;;;;;;5114398;28;20047;-69
2023/04/08 06:39:30;;;;;;;0.50;0.50;;;4.70;90.30;;;;;;5113925;28;20089;-69
2023/04/08 06:41:58;;;;;;;0.77;0.60;;;4.70;90.20;;;;;;5094229;28;20069;-69
2023/04/08 06:44:24;;;;;;;0.50;0.50;;;4.80;90.20;;;;;;5114004;28;20495;-69
2023/04/08 06:46:50;;;;;;;0.43;0.43;;;4.80;90.20;;;;;;5094944;28;20063;-69
2023/04/08 06:49:15;;;;;;;0.68;0.50;;;4.90;90.20;;;;;;5113831;28;20126;-69
2023/04/08 06:51:41;;;;;;;0.77;0.63;;;5.00;90.20;;;;;;5093651;28;20040;-69
2023/04/08 06:54:08;;;;;;;1.00;0.70;;;5.10;90.10;;;;;;5113599;28;20475;-69
2023/04/08 06:56:34;;;;;;;0.52;0.45;;;5.10;90.10;;;;;;5113686;28;20046;-69
2023/04/08 06:59:00;;;;;;;1.25;0.70;;;5.20;90.00;;;;;;5093929;28;20044;-69
2023/04/08 07:01:25;;;;;;;1.33;0.70;;;5.30;90.00;;;;;;5095191;28;20044;-69
2023/04/08 07:03:51;;;;;;;0.77;0.77;;;5.40;89.90;;;;;;5113530;28;20372;-69
2023/04/08 07:06:17;;;;;;;1.25;0.90;;;5.50;89.80;;;;;;5113694;28;20039;-69
2023/04/08 07:08:42;;;;;;;1.00;0.75;;;5.60;89.70;;;;;;5113311;28;20553;-69
2023/04/08 07:11:08;;;;;;;1.08;0.88;;;5.70;89.60;;;;;;5094783;28;20044;-70
2023/04/08 07:13:34;;;;;;;1.00;0.80;;;5.80;89.50;;;;;;5113668;28;20042;-70
2023/04/08 07:16:00;;;;;;;1.50;0.93;;;5.90;89.40;;;;;;5095329;28;20044;-70
2023/04/08 07:18:25;;;;;;;0.65;0.65;;;6.00;89.30;;;;;;5094679;28;20093;-69
2023/04/08 07:20:52;;;;;;;1.15;0.90;;;6.10;89.30;;;;;;5113270;28;20433;-69
2023/04/08 07:23:18;;;;;;;1.00;0.80;;;6.10;89.20;;;;;;5113621;28;20097;-70
2023/04/08 07:25:45;;;;;;;1.33;0.82;;;6.20;89.10;;;;;;5113352;28;20039;-70
2023/04/08 07:28:11;;;;;;;1.40;0.90;;;6.20;89.10;;;;;;5113107;28;20131;-70
2023/04/08 07:30:36;;;;;;;1.10;0.80;;;6.40;89.10;;;;;;5093803;28;20094;-69
2023/04/08 07:33:02;;;;;;;1.60;1.00;;;6.40;89.00;;;;;;5113573;28;20475;-70
2023/04/08 07:35:28;;;;;;;1.30;1.02;;;6.50;89.00;;;;;;5077045;28;20072;-69
2023/04/08 07:37:54;;;;;;;1.52;0.93;;;6.50;88.70;;;;;;5113003;28;20042;-70
2023/04/08 07:40:19;;;;;;;0.80;0.70;;;6.70;88.80;;;;;;5113071;28;20039;-69
2023/04/08 07:42:45;;;;;;;1.30;1.00;;;6.70;88.60;;;;;;5113464;28;20379;-69
2023/04/08 07:45:11;;;;;;;0.90;0.90;;;6.80;88.60;;;;;;5113017;28;20047;-70
2023/04/08 07:47:37;;;;;;;1.13;0.93;;;6.90;88.50;;;;;;5094440;28;20139;-69
2023/04/08 07:50:03;;;;;;;1.52;1.15;;;7.00;88.40;;;;;;5112939;28;20044;-69
2023/04/08 07:52:30;;;;;;;1.52;1.13;;;7.10;88.20;;;;;;5111771;28;20031;-69
2023/04/08 07:54:55;;;;;;;1.05;0.70;;;7.20;88.00;;;;;;5113266;28;20039;-69
2023/04/08 07:57:21;;;;;;;1.02;0.80;;;7.30;87.90;;;;;;5113408;28;20035;-70
2023/04/08 07:59:47;;;;;;;2.08;1.27;;;7.40;87.80;;;;;;5113361;28;20368;-70
2023/04/08 08:02:12;;;;;;;0.70;0.70;;;7.50;87.70;;;;;;5112885;28;20069;-70
2023/04/08 08:04:38;;;;;;;1.17;0.90;;;7.70;87.60;;;;;;5112724;28;20089;-70
2023/04/08 08:07:04;;;;;;;1.17;0.77;;;7.90;87.50;;;;;;5113188;28;20407;-70
2023/04/08 08:09:30;;;;;;;1.52;1.08;;;8.00;87.30;;;;;;5112758;28;20036;-70
2023/04/08 08:11:56;;;;;;;2.17;1.25;;;8.10;87.00;;;;;;5112964;28;20046;-70
2023/04/08 08:14:21;;;;;;;1.77;1.23;;;8.30;86.80;;;;;;5093646;28;20090;-70
2023/04/08 08:16:47;;;;;;;1.17;0.90;;;8.40;86.80;;;;;;5093698;28;20029;-70
2023/04/08 08:19:13;;;;;;;2.58;1.00;;;8.60;86.70;;;;;;5092191;28;20051;-70
2023/04/08 08:21:39;;;;;;;1.58;0.90;;;8.70;86.40;;;;;;5112910;28;20039;-70
2023/04/08 08:24:05;;;;;;;1.27;0.93;;;8.80;86.20;;;;;;5112516;28;20051;-69
2023/04/08 08:26:35;;;;;;;1.17;0.90;;;9.00;86.70;;;;;;5092295;28;20487;-70
2023/04/08 08:29:01;;;;;;;1.17;1.02;;;9.10;85.80;;;;;;5094593;28;20079;-69
2023/04/08 08:31:27;;;;;;;1.42;1.10;;;9.20;85.80;;;;;;5094000;28;20112;-70
2023/04/08 08:33:52;;;;;;;1.52;1.17;;;9.30;85.70;;;;;;5112511;28;20040;-69
2023/04/08 08:36:18;;;;;;;1.15;1.00;;;9.40;85.40;;;;;;5112252;28;20040;-69
2023/04/08 08:38:43;;;;;;;0.93;0.90;;;9.50;85.40;;;;;;5094032;28;20134;-69
2023/04/08 08:41:09;;;;;;;1.02;0.90;;;9.50;85.30;;;;;;5112174;28;20100;-70
2023/04/08 08:43:36;;;;;;;1.10;0.80;;;9.60;85.30;;;;;;5112566;28;20047;-70
2023/04/08 08:46:02;;;;;;;1.42;1.10;;;9.70;85.30;;;;;;5112524;28;20044;-69
2023/04/08 08:48:28;;;;;;;1.00;0.90;;;9.80;85.10;;;;;;5112563;28;20046;-69
2023/04/08 08:50:53;;;;;;;1.25;1.00;;;9.90;85.20;;;;;;5112349;28;20050;-69
2023/04/08 08:53:19;;;;;;;1.10;0.88;;;10.10;85.20;;;;;;5112389;28;20045;-69
2023/04/08 08:55:45;;;;;;;1.73;1.05;;;10.20;85.60;;;;;;5112013;28;20486;-69
2023/04/08 08:58:11;;;;;;;1.33;1.00;;;10.30;85.30;;;;;;5111908;28;20031;-69
2023/04/08 09:00:38;;;;;;;1.92;1.20;;;10.40;84.60;;;;;;5091535;28;20036;-69
2023/04/08 09:03:17;;;;;;;1.08;0.98;;;10.50;84.50;;;;;;5112920;28;20047;-69
2023/04/08 09:05:51;;;;;;;1.15;0.90;;;10.70;84.40;;;;;;5115223;28;20093;-69
2023/04/08 09:08:33;;;;;;;1.65;1.08;;;10.90;84.20;;;;;;5115315;28;20044;-69
2023/04/08 09:11:11;;;;;;;1.48;1.10;;;11.00;83.90;;;;;;5115351;28;20097;-69
2023/04/08 09:13:37;;;;;;;0.93;0.82;;;11.10;83.80;;;;;;5096777;28;20043;-69
2023/04/08 09:16:08;;;;;;;1.13;0.90;;;11.20;83.60;;;;;;5115258;28;20449;-69
2023/04/08 09:18:34;;;;;;;;;;;11.30;83.50;;;;;;5115679;28;20050;-69
2023/04/08 09:21:01;;;;;;;1.00;0.80;;;11.30;83.60;;;;;;5115289;28;20002;-68
2023/04/08 09:23:41;;;;;;;1.13;0.90;;;11.40;83.50;;;;;;5115297;28;20097;-69
2023/04/08 09:26:11;;;;;;;1.20;1.10;;;11.50;83.40;;;;;;5115299;28;20089;-70
2023/04/08 09:28:39;;;;;;;1.30;1.00;;;11.50;83.40;;;;;;5115084;28;20044;-69
2023/04/08 09:31:19;;;;;;;1.17;1.08;;;11.50;83.40;;;;;;5096035;28;20090;-69
2023/04/08 09:33:47;;;;;;;1.02;0.80;;;11.70;83.50;;;;;;5115197;28;20047;-69
2023/04/08 09:36:13;;;;;;;1.55;1.10;;;11.70;83.40;;;;;;5115018;28;20035;-68
2023/04/08 09:38:39;;;;;;;1.33;1.10;;;11.80;83.20;;;;;;5114823;28;20043;-69
2023/04/08 09:41:07;;;;;;;1.83;1.10;;;11.80;82.90;;;;;;5095322;28;20170;-69
2023/04/08 09:43:40;;;;;;;1.33;1.17;;;11.70;82.90;;;;;;5115350;28;20126;-68
2023/04/08 09:46:10;;;;;;;1.30;0.90;;;11.80;83.10;;;;;;5095185;28;20052;-68
2023/04/08 09:48:41;;;;;;;0.80;0.80;;;11.80;83.20;;;;;;5115152;28;20036;-69
2023/04/08 09:51:11;;;;;;;1.20;0.80;;;11.80;83.20;;;;;;5115192;28;20035;-68
2023/04/08 09:53:41;;;;;;;2.08;1.50;;;11.90;83.30;;;;;;5115095;28;20085;-69
2023/04/08 09:56:11;;;;;;;1.87;1.30;;;11.90;82.90;;;;;;5114801;28;20101;-69
2023/04/08 09:58:58;;;;;;;2.45;1.60;;;12.00;82.70;;;;;;5115135;28;20118;-69
2023/04/08 10:01:36;;;;;;;2.45;1.40;;;11.90;82.60;;;;;;5114902;28;20059;-68
2023/04/08 10:04:07;;;;;;;1.45;1.15;;;12.00;82.70;;;;;;5114517;28;20132;-68
2023/04/08 10:06:33;;;;;;;;;;;12.10;82.60;;;;;;5096470;28;20410;-69
2023/04/08 10:09:01;;;;;;;1.60;1.40;;;12.20;82.40;;;;;;5114425;28;19915;-68
2023/04/08 10:11:29;;;;;;;2.40;1.35;;;12.30;82.10;;;;;;5114574;28;20067;-68
2023/04/08 10:13:55;;;;;;;1.90;1.35;;;12.30;81.90;;;;;;5114408;28;20063;-68
2023/04/08 10:16:24;;;;;;;1.50;1.20;;;12.30;81.70;;;;;;5114287;28;20074;-68
2023/04/08 10:18:54;;;;;;;1.13;1.02;;;12.30;81.60;;;;;;5114834;28;20375;-69
2023/04/08 10:21:38;;;;;;;2.07;1.50;;;12.40;81.50;;;;;;5114718;28;20055;-69
2023/04/08 10:24:09;;;;;;;1.30;1.20;;;12.40;81.10;;;;;;5096434;28;20277;-69
2023/04/08 10:26:37;;;;;;;2.05;1.40;;;12.50;81.00;;;;;;5114509;28;20440;-70
2023/04/08 10:29:30;;;;;;;1.75;1.30;;;12.60;80.90;;;;;;5094732;28;20130;-68
2023/04/08 10:31:56;;;;;;;2.40;1.27;;;12.60;80.50;;;;;;5113831;28;20044;-68
2023/04/08 10:34:25;;;;;;;2.20;1.23;;;12.70;81.10;;;;;;5114596;28;20045;-69
2023/04/08 10:36:51;;;;;;;1.20;1.10;;;12.80;80.30;;;;;;5113998;28;20062;-70
2023/04/08 10:39:17;;;;;;;1.42;1.02;;;12.90;80.10;;;;;;5114252;28;20159;-69
2023/04/08 10:41:45;;;;;;;1.42;1.08;;;13.00;80.00;;;;;;5114206;28;20490;-69
2023/04/08 10:44:20;;;;;;;1.40;1.10;;;13.10;79.70;;;;;;5113883;28;20063;-69
2023/04/08 10:46:46;;;;;;;1.33;1.20;;;13.20;79.40;;;;;;5095895;28;20028;-69
2023/04/08 10:49:13;;;;;;;1.40;1.10;;;13.30;79.20;;;;;;5095104;28;20067;-69
2023/04/08 10:51:40;;;;;;;1.50;1.15;;;13.40;79.00;;;;;;5094690;28;20509;-70
2023/04/08 10:54:08;;;;;;;1.13;0.98;;;13.40;78.80;;;;;;5114358;28;20395;-71
2023/04/08 10:56:35;;;;;;;1.27;1.00;;;13.50;78.80;;;;;;5114146;28;20043;-71
2023/04/08 10:59:02;;;;;;;1.55;1.00;;;13.60;78.70;;;;;;5114169;28;20123;-71
2023/04/08 11:01:39;;;;;;;1.35;1.02;;;13.70;78.50;;;;;;5113602;28;20044;-71
2023/04/08 11:04:22;;;;;;;1.15;1.02;;;13.90;78.20;;;;;;5113613;28;20096;-71
2023/04/08 11:06:48;;;;;;;1.65;1.15;;;13.90;77.90;;;;;;5113886;28;20042;-70
2023/04/08 11:09:15;;;;;;;1.30;0.80;;;14.00;77.90;;;;;;5095193;28;20440;-71
2023/04/08 11:11:43;;;;;;;1.05;0.95;;;14.00;77.80;;;;;;5113715;28;20101;-72
2023/04/08 11:14:09;;;;;;;1.23;1.00;;;14.10;77.60;;;;;;5113598;28;20046;-70
2023/04/08 11:16:37;;;;;;;2.10;1.33;;;14.20;77.50;;;;;;5113385;28;20507;-70
2023/04/08 11:19:04;;;;;;;1.85;1.23;;;14.30;77.20;;;;;;5113706;28;20051;-71
2023/04/08 11:21:34;;;;;;;1.45;1.10;;;14.20;76.90;;;;;;5094095;28;20442;-71
2023/04/08 11:23:59;;;;;;;2.38;0.90;;;14.20;76.80;;;;;;5094139;28;20040;-71
2023/04/08 11:26:26;;;;;;;1.42;1.10;;;14.30;77.00;;;;;;5094947;28;20054;-71
2023/04/08 11:28:52;;;;;;;1.25;0.93;;;14.30;77.00;;;;;;5113128;28;20097;-70
2023/04/08 11:31:19;;;;;;;1.30;1.00;;;14.50;76.80;;;;;;5113614;28;20489;-70
2023/04/08 11:33:47;;;;;;;1.00;0.90;;;14.70;76.40;;;;;;5093587;28;20411;-70
2023/04/08 11:36:13;;;;;;;0.80;0.80;;;14.90;75.80;;;;;;5113236;28;20546;-69
2023/04/08 11:38:41;;;;;;;1.20;0.98;;;15.00;75.50;;;;;;5112923;28;20098;-69
2023/04/08 11:41:06;;;;;;;1.38;0.90;;;14.90;75.20;;;;;;5094433;28;20550;-69
2023/04/08 11:43:32;;;;;;;1.27;0.93;;;15.00;75.30;;;;;;5112898;28;20173;-71
2023/04/08 11:45:58;;;;;;;1.02;0.90;;;14.90;75.20;;;;;;5113391;28;20122;-69
2023/04/08 11:48:24;;;;;;;1.42;1.02;;;14.90;75.30;;;;;;5113339;28;20388;-70
2023/04/08 11:51:02;;;;;;;1.40;1.02;;;14.80;75.30;;;;;;5094555;28;20043;-70
2023/04/08 11:53:28;;;;;;;0.88;0.80;;;14.70;75.30;;;;;;5112716;28;20440;-69
2023/04/08 11:55:54;;;;;;;1.45;0.95;;;14.70;75.50;;;;;;5112973;28;20039;-70
2023/04/08 11:58:21;;;;;;;1.30;1.20;;;14.60;75.70;;;;;;5112706;28;20058;-70
2023/04/08 12:00:48;;;;;;;1.98;1.10;;;14.60;75.80;;;;;;5113437;28;20047;-69
2023/04/08 12:03:13;;;;;;;1.45;1.08;;;14.50;75.70;;;;;;5113019;28;20122;-69
2023/04/08 12:05:39;;;;;;;1.90;1.10;;;14.50;75.70;;;;;;5112849;28;20147;-69
2023/04/08 12:08:05;;;;;;;1.70;1.02;;;14.30;75.70;;;;;;5112773;28;20461;-69
2023/04/08 12:10:31;;;;;;;1.75;1.10;;;14.20;75.90;;;;;;5094466;28;20120;-70
2023/04/08 12:12:57;;;;;;;1.25;0.77;;;14.20;76.00;;;;;;5093534;28;20055;-69
2023/04/08 12:15:22;;;;;;;0.82;0.82;;;14.20;76.20;;;;;;5112554;28;20035;-68
2023/04/08 12:17:48;;;;;;;1.05;0.80;;;14.10;76.10;;;;;;5112452;28;20062;-68
2023/04/08 12:20:15;;;;;;;1.35;1.00;;;14.20;76.00;;;;;;5112721;28;20043;-68
2023/04/08 12:22:41;;;;;;;1.40;0.95;;;14.20;75.80;;;;;;5112895;28;20047;-68
2023/04/08 12:25:07;;;;;;;1.17;1.00;;;14.40;75.60;;;;;;5112318;28;20546;-67
2023/04/08 12:27:33;;;;;;;2.40;0.95;;;14.70;74.80;;;;;;5112349;28;20069;-68
2023/04/08 12:29:59;;;;;;;1.40;1.13;;;14.80;74.10;;;;;;5112442;28;20031;-68
2023/04/08 12:32:25;;;;;;;1.20;0.88;;;14.90;73.90;;;;;;5112525;28;20040;-68
2023/04/08 12:35:10;;;;;;;1.27;0.90;;;15.00;73.80;;;;;;5112347;28;20036;-68
2023/04/08 12:37:35;;;;;;;1.40;0.90;;;15.00;73.20;;;;;;5112753;28;20126;-68
2023/04/08 12:40:01;;;;;;;0.70;0.70;;;15.00;73.20;;;;;;5115717;28;20526;-69
2023/04/08 12:42:27;;;;;;;1.25;0.98;;;15.00;73.60;;;;;;5115733;28;20046;-68
2023/04/08 12:44:52;;;;;;;1.50;1.20;;;15.10;73.50;;;;;;5115680;28;20066;-69
2023/04/08 12:47:18;;;;;;;1.42;0.90;;;15.10;73.00;;;;;;5115686;28;20051;-68
2023/04/08 12:49:44;;;;;;;1.48;1.00;;;15.20;73.20;;;;;;5115913;28;20035;-68
2023/04/08 12:52:09;;;;;;;1.60;1.00;;;15.20;73.00;;;;;;5116031;28;20040;-67
2023/04/08 12:54:35;;;;;;;1.15;1.00;;;15.20;72.90;;;;;;5116076;28;20093;-69